createdAt,value
2022-11-29T00:00:19.273Z,1001.83
2022-11-29T00:01:19.273Z,1001.8
2022-11-29T00:02:19.245Z,1001.79
2022-11-29T00:03:19.239Z,1001.83
2022-11-29T00:04:19.227Z,1001.78
2022-11-29T00:05:19.224Z,1001.77
2022-11-29T00:06:19.209Z,1001.84
2022-11-29T00:07:19.201Z,1001.78
2022-11-29T00:08:19.255Z,1001.84
2022-11-29T00:09:19.175Z,1001.8
2022-11-29T00:10:19.165Z,1001.86
2022-11-29T00:11:19.166Z,1001.84
2022-11-29T00:12:19.159Z,1001.84
2022-11-29T00:13:19.141Z,1001.88
2022-11-29T00:14:19.150Z,1001.87
2022-11-29T00:15:19.113Z,1001.86
2022-11-29T00:16:19.103Z,1001.84
2022-11-29T00:17:19.092Z,1001.85
2022-11-29T00:18:19.087Z,1001.83
2022-11-29T00:19:19.073Z,1001.88
2022-11-29T00:20:19.065Z,1001.87
2022-11-29T00:21:19.063Z,1001.92
2022-11-29T00:22:19.037Z,1001.86
2022-11-29T00:23:19.039Z,1001.84
2022-11-29T00:24:19.024Z,1001.84
2022-11-29T00:25:19.044Z,1001.85
2022-11-29T00:26:18.994Z,1001.89
2022-11-29T00:27:18.989Z,1001.82
2022-11-29T00:28:18.977Z,1001.9
2022-11-29T00:29:18.962Z,1001.84
2022-11-29T00:30:18.962Z,1001.87
2022-11-29T00:31:18.942Z,1001.91
2022-11-29T00:32:18.931Z,1001.95
2022-11-29T00:33:18.976Z,1001.86
2022-11-29T00:34:18.959Z,1001.82
2022-11-29T00:35:18.969Z,1001.9
2022-11-29T00:36:18.890Z,1001.87
2022-11-29T00:37:18.888Z,1001.93
2022-11-29T00:38:18.884Z,1001.87
2022-11-29T00:39:18.859Z,1001.83
2022-11-29T00:40:18.862Z,1001.88
2022-11-29T00:41:18.841Z,1001.86
2022-11-29T00:42:18.834Z,1001.83
2022-11-29T00:43:18.854Z,1001.91
2022-11-29T00:44:18.803Z,1001.89
2022-11-29T00:45:18.800Z,1001.85
2022-11-29T00:46:18.827Z,1001.85
2022-11-29T00:47:18.790Z,1001.82
2022-11-29T00:48:18.774Z,1001.82
2022-11-29T00:49:18.776Z,1001.84
2022-11-29T00:50:18.746Z,1001.84
2022-11-29T00:51:18.737Z,1001.79
2022-11-29T00:52:18.723Z,1001.83
2022-11-29T00:53:18.710Z,1001.84
2022-11-29T00:54:18.704Z,1001.81
2022-11-29T00:55:18.694Z,1001.78
2022-11-29T00:56:18.680Z,1001.8
2022-11-29T00:57:18.674Z,1001.76
2022-11-29T00:58:18.671Z,1001.78
2022-11-29T00:59:18.667Z,1001.73
2022-11-29T01:00:18.639Z,1001.8
2022-11-29T01:01:18.632Z,1001.72
2022-11-29T01:02:18.623Z,1001.72
2022-11-29T01:03:18.617Z,1001.75
2022-11-29T01:04:18.597Z,1001.75
2022-11-29T01:05:18.590Z,1001.73
2022-11-29T01:06:18.577Z,1001.77
2022-11-29T01:07:18.568Z,1001.82
2022-11-29T01:08:18.557Z,1001.76
2022-11-29T01:09:18.550Z,1001.78
2022-11-29T01:10:18.540Z,1001.83
2022-11-29T01:11:18.535Z,1001.86
2022-11-29T01:12:18.512Z,1001.81
2022-11-29T01:13:18.498Z,1001.85
2022-11-29T01:14:18.497Z,1001.81
2022-11-29T01:15:18.486Z,1001.81
2022-11-29T01:16:18.488Z,1001.88
2022-11-29T01:17:18.459Z,1001.87
2022-11-29T01:18:18.454Z,1001.83
2022-11-29T01:19:18.455Z,1001.81
2022-11-29T01:20:18.429Z,1001.8
2022-11-29T01:21:18.421Z,1001.76
2022-11-29T01:22:18.416Z,1001.8
2022-11-29T01:23:18.403Z,1001.87
2022-11-29T01:24:18.383Z,1001.86
2022-11-29T01:25:18.394Z,1001.85
2022-11-29T01:26:18.363Z,1001.86
2022-11-29T01:27:18.354Z,1001.77
2022-11-29T01:28:18.341Z,1001.8
2022-11-29T01:29:18.332Z,1001.83
2022-11-29T01:30:18.319Z,1001.87
2022-11-29T01:31:18.318Z,1001.87
2022-11-29T01:32:18.306Z,1001.93
2022-11-29T01:33:18.291Z,1001.93
2022-11-29T01:34:18.282Z,1001.9
2022-11-29T01:35:18.272Z,1001.88
2022-11-29T01:36:18.256Z,1001.89
2022-11-29T01:37:18.256Z,1001.92
2022-11-29T01:38:18.237Z,1001.9
2022-11-29T01:39:18.230Z,1001.93
2022-11-29T01:40:18.218Z,1001.94
2022-11-29T01:41:18.202Z,1001.93
2022-11-29T01:42:18.194Z,1001.94
2022-11-29T01:43:18.186Z,1001.95
2022-11-29T01:44:18.183Z,1002.01
2022-11-29T01:45:18.168Z,1002.03
2022-11-29T01:46:18.156Z,1001.98
2022-11-29T01:47:18.168Z,1002.05
2022-11-29T01:48:18.176Z,1002.02
2022-11-29T01:49:18.122Z,1002.03
2022-11-29T01:50:18.109Z,1002.01
2022-11-29T01:51:18.098Z,1002.01
2022-11-29T01:52:18.095Z,1002.01
2022-11-29T01:53:18.078Z,1001.99
2022-11-29T01:54:18.070Z,1002.01
2022-11-29T01:55:18.056Z,1002.02
2022-11-29T01:56:18.044Z,1002.03
2022-11-29T01:57:18.034Z,1002.02
2022-11-29T01:58:18.028Z,1002.06
2022-11-29T01:59:18.015Z,1002.04
2022-11-29T02:00:18.010Z,1002.02
2022-11-29T02:01:17.995Z,1002.02
2022-11-29T02:02:17.984Z,1002
2022-11-29T02:03:17.975Z,1002
2022-11-29T02:04:17.969Z,1002.01
2022-11-29T02:05:17.954Z,1002.04
2022-11-29T02:06:17.945Z,1002.05
2022-11-29T02:07:17.974Z,1002.08
2022-11-29T02:08:17.963Z,1002.09
2022-11-29T02:09:17.916Z,1002.05
2022-11-29T02:10:17.896Z,1002.09
2022-11-29T02:11:17.987Z,1002.02
2022-11-29T02:12:17.876Z,1002.1
2022-11-29T02:13:17.869Z,1002.02
2022-11-29T02:14:17.853Z,1002.06
2022-11-29T02:15:17.857Z,1002.06
2022-11-29T02:16:17.850Z,1002.02
2022-11-29T02:17:17.833Z,1002.12
2022-11-29T02:18:17.817Z,1002.06
2022-11-29T02:19:17.812Z,1002.08
2022-11-29T02:20:17.803Z,1002.08
2022-11-29T02:21:17.808Z,1002.15
2022-11-29T02:22:17.771Z,1002.13
2022-11-29T02:23:17.768Z,1002.14
2022-11-29T02:24:17.755Z,1002.12
2022-11-29T02:25:17.746Z,1002.16
2022-11-29T02:26:17.735Z,1002.14
2022-11-29T02:27:17.724Z,1002.12
2022-11-29T02:28:17.711Z,1002.24
2022-11-29T02:29:17.698Z,1002.18
2022-11-29T02:30:17.686Z,1002.21
2022-11-29T02:31:17.710Z,1002.23
2022-11-29T02:32:17.670Z,1002.19
2022-11-29T02:33:17.670Z,1002.22
2022-11-29T02:34:17.649Z,1002.25
2022-11-29T02:35:17.645Z,1002.27
2022-11-29T02:36:17.630Z,1002.25
2022-11-29T02:37:17.631Z,1002.2
2022-11-29T02:38:17.624Z,1002.25
2022-11-29T02:39:17.592Z,1002.25
2022-11-29T02:40:17.584Z,1002.24
2022-11-29T02:41:17.571Z,1002.25
2022-11-29T02:42:17.575Z,1002.25
2022-11-29T02:43:17.563Z,1002.28
2022-11-29T02:44:17.539Z,1002.25
2022-11-29T02:45:17.530Z,1002.19
2022-11-29T02:46:17.559Z,1002.24
2022-11-29T02:47:17.507Z,1002.27
2022-11-29T02:48:17.608Z,1002.28
2022-11-29T02:49:17.531Z,1002.29
2022-11-29T02:50:17.510Z,1002.23
2022-11-29T02:51:17.478Z,1002.28
2022-11-29T02:52:17.457Z,1002.23
2022-11-29T02:53:17.447Z,1002.24
2022-11-29T02:54:17.439Z,1002.26
2022-11-29T02:55:17.426Z,1002.26
2022-11-29T02:56:17.419Z,1002.24
2022-11-29T02:57:17.413Z,1002.23
2022-11-29T02:58:17.402Z,1002.29
2022-11-29T02:59:17.387Z,1002.32
2022-11-29T03:00:17.374Z,1002.31
2022-11-29T03:01:17.361Z,1002.33
2022-11-29T03:02:17.350Z,1002.32
2022-11-29T03:03:17.343Z,1002.29
2022-11-29T03:04:17.330Z,1002.34
2022-11-29T03:05:17.335Z,1002.41
2022-11-29T03:06:17.314Z,1002.38
2022-11-29T03:07:17.303Z,1002.34
2022-11-29T03:08:17.291Z,1002.41
2022-11-29T03:09:17.280Z,1002.4
2022-11-29T03:10:17.273Z,1002.36
2022-11-29T03:11:17.259Z,1002.41
2022-11-29T03:12:17.255Z,1002.43
2022-11-29T03:13:17.243Z,1002.47
2022-11-29T03:14:17.228Z,1002.43
2022-11-29T03:15:17.215Z,1002.4
2022-11-29T03:16:17.204Z,1002.39
2022-11-29T03:17:17.199Z,1002.48
2022-11-29T03:18:17.195Z,1002.47
2022-11-29T03:19:17.177Z,1002.49
2022-11-29T03:20:17.165Z,1002.44
2022-11-29T03:21:17.150Z,1002.51
2022-11-29T03:22:17.136Z,1002.54
2022-11-29T03:23:17.135Z,1002.54
2022-11-29T03:24:17.125Z,1002.54
2022-11-29T03:25:17.122Z,1002.52
2022-11-29T03:26:17.123Z,1002.51
2022-11-29T03:27:17.100Z,1002.53
2022-11-29T03:28:17.092Z,1002.55
2022-11-29T03:29:17.166Z,1002.57
2022-11-29T03:30:17.056Z,1002.55
2022-11-29T03:31:17.044Z,1002.58
2022-11-29T03:32:17.043Z,1002.6
2022-11-29T03:33:17.034Z,1002.61
2022-11-29T03:34:17.018Z,1002.63
2022-11-29T03:35:17.005Z,1002.64
2022-11-29T03:36:17.031Z,1002.6
2022-11-29T03:37:16.990Z,1002.61
2022-11-29T03:38:16.972Z,1002.63
2022-11-29T03:39:16.986Z,1002.58
2022-11-29T03:40:16.957Z,1002.69
2022-11-29T03:41:16.957Z,1002.6
2022-11-29T03:42:16.931Z,1002.68
2022-11-29T03:43:16.923Z,1002.63
2022-11-29T03:44:16.917Z,1002.72
2022-11-29T03:45:16.902Z,1002.65
2022-11-29T03:46:16.890Z,1002.7
2022-11-29T03:47:16.906Z,1002.66
2022-11-29T03:48:16.873Z,1002.73
2022-11-29T03:49:16.853Z,1002.72
2022-11-29T03:50:16.843Z,1002.71
2022-11-29T03:51:16.836Z,1002.78
2022-11-29T03:52:16.828Z,1002.72
2022-11-29T03:53:16.817Z,1002.76
2022-11-29T03:54:16.800Z,1002.75
2022-11-29T03:55:16.827Z,1002.79
2022-11-29T03:56:16.794Z,1002.78
2022-11-29T03:57:16.772Z,1002.78
2022-11-29T03:58:16.769Z,1002.81
2022-11-29T03:59:16.762Z,1002.78
2022-11-29T04:00:16.756Z,1002.8
2022-11-29T04:01:16.745Z,1002.82
2022-11-29T04:02:16.722Z,1002.75
2022-11-29T04:03:16.712Z,1002.78
2022-11-29T04:04:16.697Z,1002.82
2022-11-29T04:05:16.690Z,1002.8
2022-11-29T04:06:16.680Z,1002.78
2022-11-29T04:07:16.668Z,1002.77
2022-11-29T04:08:16.653Z,1002.79
2022-11-29T04:09:16.648Z,1002.8
2022-11-29T04:10:16.637Z,1002.74
2022-11-29T04:11:16.639Z,1002.76
2022-11-29T04:12:16.611Z,1002.76
2022-11-29T04:13:16.615Z,1002.75
2022-11-29T04:14:16.596Z,1002.74
2022-11-29T04:15:16.611Z,1002.73
2022-11-29T04:16:16.577Z,1002.7
2022-11-29T04:17:16.582Z,1002.76
2022-11-29T04:18:16.558Z,1002.75
2022-11-29T04:19:16.539Z,1002.78
2022-11-29T04:20:16.531Z,1002.8
2022-11-29T04:21:16.523Z,1002.76
2022-11-29T04:22:16.529Z,1002.77
2022-11-29T04:23:16.509Z,1002.77
2022-11-29T04:24:16.489Z,1002.79
2022-11-29T04:25:16.475Z,1002.81
2022-11-29T04:26:16.466Z,1002.86
2022-11-29T04:27:16.451Z,1002.79
2022-11-29T04:28:16.450Z,1002.79
2022-11-29T04:29:16.435Z,1002.72
2022-11-29T04:30:16.423Z,1002.77
2022-11-29T04:31:16.414Z,1002.8
2022-11-29T04:32:16.405Z,1002.77
2022-11-29T04:33:16.397Z,1002.78
2022-11-29T04:34:16.386Z,1002.82
2022-11-29T04:35:16.386Z,1002.78
2022-11-29T04:36:16.370Z,1002.81
2022-11-29T04:37:16.346Z,1002.79
2022-11-29T04:38:16.351Z,1002.79
2022-11-29T04:39:16.332Z,1002.82
2022-11-29T04:40:16.337Z,1002.83
2022-11-29T04:41:16.309Z,1002.83
2022-11-29T04:42:16.308Z,1002.81
2022-11-29T04:43:16.290Z,1002.82
2022-11-29T04:44:16.273Z,1002.91
2022-11-29T04:45:16.269Z,1002.91
2022-11-29T04:46:16.266Z,1002.93
2022-11-29T04:47:16.254Z,1002.9
2022-11-29T04:48:16.233Z,1002.92
2022-11-29T04:49:16.225Z,1002.89
2022-11-29T04:50:16.211Z,1002.95
2022-11-29T04:51:16.213Z,1002.96
2022-11-29T04:52:16.192Z,1002.99
2022-11-29T04:53:16.187Z,1003.05
2022-11-29T04:54:16.176Z,1003.04
2022-11-29T04:55:16.164Z,1002.99
2022-11-29T04:56:16.148Z,1003.03
2022-11-29T04:57:16.140Z,1003.03
2022-11-29T04:58:16.152Z,1003.07
2022-11-29T04:59:16.137Z,1003.14
2022-11-29T05:00:16.110Z,1003.1
2022-11-29T05:01:16.096Z,1003.15
2022-11-29T05:02:16.095Z,1003.13
2022-11-29T05:03:16.071Z,1003.13
2022-11-29T05:04:16.061Z,1003.14
2022-11-29T05:05:16.061Z,1003.15
2022-11-29T05:06:16.043Z,1003.2
2022-11-29T05:07:16.034Z,1003.21
2022-11-29T05:08:16.045Z,1003.2
2022-11-29T05:09:16.016Z,1003.22
2022-11-29T05:10:16.012Z,1003.23
2022-11-29T05:11:15.992Z,1003.24
2022-11-29T05:12:15.990Z,1003.27
2022-11-29T05:13:15.976Z,1003.26
2022-11-29T05:14:15.965Z,1003.28
2022-11-29T05:15:15.952Z,1003.28
2022-11-29T05:16:15.949Z,1003.33
2022-11-29T05:17:15.929Z,1003.28
2022-11-29T05:18:15.931Z,1003.3
2022-11-29T05:19:15.905Z,1003.33
2022-11-29T05:20:15.896Z,1003.32
2022-11-29T05:21:15.901Z,1003.34
2022-11-29T05:22:15.897Z,1003.35
2022-11-29T05:23:15.871Z,1003.32
2022-11-29T05:24:15.863Z,1003.3
2022-11-29T05:25:15.852Z,1003.34
2022-11-29T05:26:15.839Z,1003.34
2022-11-29T05:27:15.827Z,1003.35
2022-11-29T05:28:15.811Z,1003.35
2022-11-29T05:29:15.807Z,1003.33
2022-11-29T05:30:15.787Z,1003.33
2022-11-29T05:31:15.787Z,1003.39
2022-11-29T05:32:15.787Z,1003.38
2022-11-29T05:33:15.764Z,1003.35
2022-11-29T05:34:15.754Z,1003.35
2022-11-29T05:35:15.738Z,1003.36
2022-11-29T05:36:15.748Z,1003.4
2022-11-29T05:37:15.718Z,1003.41
2022-11-29T05:38:15.708Z,1003.38
2022-11-29T05:39:15.699Z,1003.43
2022-11-29T05:40:15.686Z,1003.49
2022-11-29T05:41:15.681Z,1003.5
2022-11-29T05:42:15.664Z,1003.46
2022-11-29T05:43:15.679Z,1003.47
2022-11-29T05:44:15.652Z,1003.53
2022-11-29T05:45:15.655Z,1003.5
2022-11-29T05:46:15.623Z,1003.54
2022-11-29T05:47:15.613Z,1003.54
2022-11-29T05:48:15.603Z,1003.55
2022-11-29T05:49:15.591Z,1003.56
2022-11-29T05:50:15.586Z,1003.52
2022-11-29T05:51:15.599Z,1003.54
2022-11-29T05:52:15.563Z,1003.51
2022-11-29T05:53:15.551Z,1003.52
2022-11-29T05:54:15.543Z,1003.56
2022-11-29T05:55:15.529Z,1003.55
2022-11-29T05:56:15.525Z,1003.59
2022-11-29T05:57:15.523Z,1003.59
2022-11-29T05:58:15.499Z,1003.61
2022-11-29T05:59:15.486Z,1003.57
2022-11-29T06:00:15.528Z,1003.61
2022-11-29T06:01:15.516Z,1003.58
2022-11-29T06:02:16.548Z,1003.6
2022-11-29T06:03:15.542Z,1003.57
2022-11-29T06:04:15.517Z,1003.61
2022-11-29T06:05:15.423Z,1003.58
2022-11-29T06:06:15.683Z,1003.59
2022-11-29T06:07:15.429Z,1003.63
2022-11-29T06:08:16.478Z,1003.69
2022-11-29T06:09:15.456Z,1003.64
2022-11-29T06:10:16.505Z,1003.71
2022-11-29T06:11:15.475Z,1003.69
2022-11-29T06:12:15.474Z,1003.67
2022-11-29T06:13:15.358Z,1003.75
2022-11-29T06:14:15.357Z,1003.77
2022-11-29T06:15:15.314Z,1003.76
2022-11-29T06:16:15.400Z,1003.83
2022-11-29T06:17:15.298Z,1003.81
2022-11-29T06:18:15.308Z,1003.79
2022-11-29T06:19:15.288Z,1003.81
2022-11-29T06:20:15.264Z,1003.75
2022-11-29T06:21:15.259Z,1003.93
2022-11-29T06:22:15.244Z,1003.87
2022-11-29T06:23:15.235Z,1003.86
2022-11-29T06:24:15.230Z,1003.84
2022-11-29T06:25:15.209Z,1003.95
2022-11-29T06:26:15.199Z,1003.85
2022-11-29T06:27:15.187Z,1003.96
2022-11-29T06:28:15.182Z,1003.9
2022-11-29T06:29:15.166Z,1003.88
2022-11-29T06:30:15.161Z,1003.87
2022-11-29T06:31:15.164Z,1003.87
2022-11-29T06:32:15.147Z,1003.88
2022-11-29T06:33:15.130Z,1003.88
2022-11-29T06:34:15.117Z,1003.89
2022-11-29T06:35:15.102Z,1003.9
2022-11-29T06:36:15.108Z,1003.89
2022-11-29T06:37:15.088Z,1003.91
2022-11-29T06:38:15.086Z,1003.96
2022-11-29T06:39:15.080Z,1003.91
2022-11-29T06:40:15.074Z,1003.96
2022-11-29T06:41:15.045Z,1003.96
2022-11-29T06:42:15.077Z,1004.04
2022-11-29T06:43:15.035Z,1003.93
2022-11-29T06:44:15.065Z,1003.97
2022-11-29T06:45:15.006Z,1004.03
2022-11-29T06:46:15.166Z,1003.99
2022-11-29T06:47:15.114Z,1004.04
2022-11-29T06:48:16.088Z,1004.04
2022-11-29T06:49:15.956Z,1004.01
2022-11-29T06:50:14.943Z,1004.09
2022-11-29T06:51:14.937Z,1004.07
2022-11-29T06:52:14.923Z,1004.11
2022-11-29T06:53:14.918Z,1004.11
2022-11-29T06:54:15.103Z,1004.12
2022-11-29T06:55:14.891Z,1004.14
2022-11-29T06:56:14.883Z,1004.13
2022-11-29T06:57:14.875Z,1004.17
2022-11-29T06:58:14.864Z,1004.12
2022-11-29T06:59:14.850Z,1004.18
2022-11-29T07:00:14.841Z,1004.16
2022-11-29T07:01:14.829Z,1004.22
2022-11-29T07:02:14.820Z,1004.21
2022-11-29T07:03:14.809Z,1004.21
2022-11-29T07:04:14.796Z,1004.21
2022-11-29T07:05:14.788Z,1004.22
2022-11-29T07:06:14.778Z,1004.17
2022-11-29T07:07:14.763Z,1004.18
2022-11-29T07:08:14.764Z,1004.25
2022-11-29T07:09:14.744Z,1004.19
2022-11-29T07:10:14.730Z,1004.22
2022-11-29T07:11:14.724Z,1004.25
2022-11-29T07:12:14.718Z,1004.26
2022-11-29T07:13:14.699Z,1004.34
2022-11-29T07:14:14.692Z,1004.28
2022-11-29T07:15:14.692Z,1004.37
2022-11-29T07:16:14.686Z,1004.34
2022-11-29T07:17:14.714Z,1004.38
2022-11-29T07:18:14.647Z,1004.4
2022-11-29T07:19:14.637Z,1004.35
2022-11-29T07:20:14.630Z,1004.38
2022-11-29T07:21:14.618Z,1004.45
2022-11-29T07:22:14.611Z,1004.45
2022-11-29T07:23:14.599Z,1004.4
2022-11-29T07:24:14.583Z,1004.46
2022-11-29T07:25:14.578Z,1004.42
2022-11-29T07:26:14.592Z,1004.45
2022-11-29T07:27:14.557Z,1004.43
2022-11-29T07:28:14.544Z,1004.45
2022-11-29T07:29:14.538Z,1004.47
2022-11-29T07:30:14.526Z,1004.43
2022-11-29T07:31:14.509Z,1004.47
2022-11-29T07:32:14.506Z,1004.44
2022-11-29T07:33:14.492Z,1004.48
2022-11-29T07:34:14.482Z,1004.47
2022-11-29T07:35:14.473Z,1004.54
2022-11-29T07:36:14.461Z,1004.54
2022-11-29T07:37:14.470Z,1004.52
2022-11-29T07:38:14.475Z,1004.46
2022-11-29T07:39:14.431Z,1004.5
2022-11-29T07:40:14.418Z,1004.55
2022-11-29T07:41:14.416Z,1004.51
2022-11-29T07:42:14.392Z,1004.58
2022-11-29T07:43:14.387Z,1004.6
2022-11-29T07:44:14.372Z,1004.58
2022-11-29T07:45:14.370Z,1004.58
2022-11-29T07:46:14.366Z,1004.6
2022-11-29T07:47:14.350Z,1004.6
2022-11-29T07:48:14.332Z,1004.62
2022-11-29T07:49:14.321Z,1004.62
2022-11-29T07:50:14.314Z,1004.57
2022-11-29T07:51:14.302Z,1004.62
2022-11-29T07:52:14.291Z,1004.65
2022-11-29T07:53:14.282Z,1004.63
2022-11-29T07:54:14.273Z,1004.62
2022-11-29T07:55:14.255Z,1004.61
2022-11-29T07:56:14.252Z,1004.62
2022-11-29T07:57:14.241Z,1004.63
2022-11-29T07:58:14.227Z,1004.61
2022-11-29T07:59:14.218Z,1004.61
2022-11-29T08:00:14.207Z,1004.63
2022-11-29T08:01:14.194Z,1004.62
2022-11-29T08:02:14.185Z,1004.68
2022-11-29T08:03:14.175Z,1004.65
2022-11-29T08:04:14.167Z,1004.71
2022-11-29T08:05:14.155Z,1004.77
2022-11-29T08:06:14.146Z,1004.73
2022-11-29T08:07:14.135Z,1004.77
2022-11-29T08:08:14.123Z,1004.7
2022-11-29T08:09:14.122Z,1004.73
2022-11-29T08:10:14.099Z,1004.74
2022-11-29T08:11:14.092Z,1004.77
2022-11-29T08:12:14.084Z,1004.82
2022-11-29T08:13:14.071Z,1004.82
2022-11-29T08:14:14.061Z,1004.83
2022-11-29T08:15:14.059Z,1004.83
2022-11-29T08:16:14.040Z,1004.79
2022-11-29T08:17:14.062Z,1004.78
2022-11-29T08:18:14.061Z,1004.87
2022-11-29T08:19:14.008Z,1004.86
2022-11-29T08:20:13.995Z,1004.89
2022-11-29T08:21:13.990Z,1004.85
2022-11-29T08:22:13.984Z,1004.84
2022-11-29T08:23:13.968Z,1004.86
2022-11-29T08:24:13.951Z,1004.85
2022-11-29T08:25:13.943Z,1004.86
2022-11-29T08:26:13.931Z,1004.84
2022-11-29T08:27:13.921Z,1004.89
2022-11-29T08:28:13.925Z,1004.93
2022-11-29T08:29:13.902Z,1004.9
2022-11-29T08:30:13.895Z,1004.9
2022-11-29T08:31:13.880Z,1004.96
2022-11-29T08:32:13.870Z,1004.92
2022-11-29T08:33:13.860Z,1004.94
2022-11-29T08:34:13.855Z,1004.97
2022-11-29T08:35:13.839Z,1004.92
2022-11-29T08:36:13.830Z,1004.98
2022-11-29T08:37:13.820Z,1004.94
2022-11-29T08:38:13.805Z,1004.95
2022-11-29T08:39:13.796Z,1004.92
2022-11-29T08:40:13.786Z,1004.92
2022-11-29T08:41:13.786Z,1004.91
2022-11-29T08:42:13.764Z,1004.96
2022-11-29T08:43:13.754Z,1004.96
2022-11-29T08:44:13.741Z,1005
2022-11-29T08:45:13.738Z,1005.04
2022-11-29T08:46:13.728Z,1004.97
2022-11-29T08:47:13.722Z,1005
2022-11-29T08:48:13.706Z,1005.02
2022-11-29T08:49:13.688Z,1005.04
2022-11-29T08:50:13.692Z,1005.08
2022-11-29T08:51:13.674Z,1005.05
2022-11-29T08:52:13.659Z,1005.09
2022-11-29T08:53:13.647Z,1005.05
2022-11-29T08:54:13.641Z,1005.07
2022-11-29T08:55:13.626Z,1005.12
2022-11-29T08:56:13.616Z,1005.16
2022-11-29T08:57:13.603Z,1005.16
2022-11-29T08:58:13.592Z,1005.09
2022-11-29T08:59:13.582Z,1005.11
2022-11-29T09:00:13.574Z,1005.11
2022-11-29T09:01:13.568Z,1005.15
2022-11-29T09:02:13.549Z,1005.14
2022-11-29T09:03:13.541Z,1005.14
2022-11-29T09:04:13.528Z,1005.15
2022-11-29T09:05:13.524Z,1005.12
2022-11-29T09:06:13.507Z,1005.15
2022-11-29T09:07:13.502Z,1005.1
2022-11-29T09:08:13.513Z,1005.11
2022-11-29T09:09:13.528Z,1005.13
2022-11-29T09:10:13.473Z,1005.19
2022-11-29T09:11:13.460Z,1005.17
2022-11-29T09:12:13.461Z,1005.17
2022-11-29T09:13:13.434Z,1005.19
2022-11-29T09:14:13.431Z,1005.22
2022-11-29T09:15:13.438Z,1005.23
2022-11-29T09:16:13.403Z,1005.14
2022-11-29T09:17:13.391Z,1005.22
2022-11-29T09:18:13.386Z,1005.24
2022-11-29T09:19:13.376Z,1005.22
2022-11-29T09:20:13.362Z,1005.28
2022-11-29T09:21:13.352Z,1005.25
2022-11-29T09:22:14.371Z,1005.29
2022-11-29T09:23:13.338Z,1005.35
2022-11-29T09:24:13.321Z,1005.36
2022-11-29T09:25:13.319Z,1005.29
2022-11-29T09:26:13.346Z,1005.36
2022-11-29T09:27:13.289Z,1005.39
2022-11-29T09:28:13.280Z,1005.42
2022-11-29T09:29:13.266Z,1005.41
2022-11-29T09:30:13.256Z,1005.4
2022-11-29T09:31:13.272Z,1005.39
2022-11-29T09:32:13.242Z,1005.45
2022-11-29T09:33:13.225Z,1005.44
2022-11-29T09:34:13.226Z,1005.45
2022-11-29T09:35:13.201Z,1005.44
2022-11-29T09:36:13.194Z,1005.45
2022-11-29T09:37:13.187Z,1005.44
2022-11-29T09:38:13.182Z,1005.47
2022-11-29T09:39:13.180Z,1005.47
2022-11-29T09:40:13.152Z,1005.45
2022-11-29T09:41:13.139Z,1005.49
2022-11-29T09:42:13.125Z,1005.46
2022-11-29T09:43:13.119Z,1005.52
2022-11-29T09:44:13.112Z,1005.52
2022-11-29T09:45:13.095Z,1005.51
2022-11-29T09:46:13.097Z,1005.49
2022-11-29T09:47:13.087Z,1005.55
2022-11-29T09:48:13.073Z,1005.51
2022-11-29T09:49:13.059Z,1005.52
2022-11-29T09:50:13.068Z,1005.54
2022-11-29T09:51:13.037Z,1005.57
2022-11-29T09:52:13.027Z,1005.55
2022-11-29T09:53:13.014Z,1005.54
2022-11-29T09:54:13.001Z,1005.57
2022-11-29T09:55:12.991Z,1005.59
2022-11-29T09:56:12.984Z,1005.59
2022-11-29T09:57:12.975Z,1005.61
2022-11-29T09:58:12.958Z,1005.62
2022-11-29T09:59:12.950Z,1005.55
2022-11-29T10:00:12.933Z,1005.58
2022-11-29T10:01:12.969Z,1005.62
2022-11-29T10:02:12.919Z,1005.62
2022-11-29T10:03:12.903Z,1005.61
2022-11-29T10:04:12.921Z,1005.61
2022-11-29T10:05:12.885Z,1005.59
2022-11-29T10:06:12.906Z,1005.55
2022-11-29T10:07:12.864Z,1005.55
2022-11-29T10:08:12.851Z,1005.59
2022-11-29T10:09:12.839Z,1005.57
2022-11-29T10:10:12.825Z,1005.6
2022-11-29T10:11:12.872Z,1005.57
2022-11-29T10:12:12.807Z,1005.6
2022-11-29T10:13:12.802Z,1005.65
2022-11-29T10:14:13.798Z,1005.59
2022-11-29T10:15:12.774Z,1005.61
2022-11-29T10:16:12.797Z,1005.6
2022-11-29T10:17:12.752Z,1005.58
2022-11-29T10:18:12.749Z,1005.6
2022-11-29T10:19:12.735Z,1005.56
2022-11-29T10:20:12.721Z,1005.57
2022-11-29T10:21:12.716Z,1005.6
2022-11-29T10:22:12.704Z,1005.57
2022-11-29T10:23:13.201Z,1005.6
2022-11-29T10:24:12.681Z,1005.59
2022-11-29T10:25:12.672Z,1005.6
2022-11-29T10:26:12.665Z,1005.65
2022-11-29T10:27:12.668Z,1005.59
2022-11-29T10:28:12.642Z,1005.59
2022-11-29T10:29:12.626Z,1005.6
2022-11-29T10:30:12.622Z,1005.63
2022-11-29T10:31:12.639Z,1005.6
2022-11-29T10:32:12.597Z,1005.61
2022-11-29T10:33:12.585Z,1005.61
2022-11-29T10:34:12.575Z,1005.59
2022-11-29T10:35:12.577Z,1005.63
2022-11-29T10:36:12.555Z,1005.61
2022-11-29T10:37:12.542Z,1005.65
2022-11-29T10:38:12.533Z,1005.63
2022-11-29T10:39:12.541Z,1005.67
2022-11-29T10:40:12.512Z,1005.62
2022-11-29T10:41:12.500Z,1005.67
2022-11-29T10:42:12.498Z,1005.7
2022-11-29T10:43:12.481Z,1005.66
2022-11-29T10:44:12.475Z,1005.68
2022-11-29T10:45:12.511Z,1005.69
2022-11-29T10:46:12.454Z,1005.8
2022-11-29T10:47:12.442Z,1005.68
2022-11-29T10:48:12.448Z,1005.77
2022-11-29T10:49:12.426Z,1005.71
2022-11-29T10:50:12.407Z,1005.69
2022-11-29T10:51:12.394Z,1005.75
2022-11-29T10:52:12.385Z,1005.66
2022-11-29T10:53:12.377Z,1005.63
2022-11-29T10:54:12.367Z,1005.71
2022-11-29T10:55:12.356Z,1005.71
2022-11-29T10:56:12.351Z,1005.73
2022-11-29T10:57:12.336Z,1005.74
2022-11-29T10:58:12.324Z,1005.7
2022-11-29T10:59:12.316Z,1005.71
2022-11-29T11:00:12.309Z,1005.64
2022-11-29T11:01:12.300Z,1005.72
2022-11-29T11:02:12.278Z,1005.65
2022-11-29T11:03:12.275Z,1005.63
2022-11-29T11:04:12.257Z,1005.65
2022-11-29T11:05:12.251Z,1005.62
2022-11-29T11:06:12.268Z,1005.65
2022-11-29T11:07:12.226Z,1005.67
2022-11-29T11:08:12.218Z,1005.63
2022-11-29T11:09:12.205Z,1005.63
2022-11-29T11:10:12.196Z,1005.61
2022-11-29T11:11:12.192Z,1005.68
2022-11-29T11:12:12.187Z,1005.69
2022-11-29T11:13:12.165Z,1005.68
2022-11-29T11:14:12.155Z,1005.72
2022-11-29T11:15:12.146Z,1005.69
2022-11-29T11:16:12.131Z,1005.73
2022-11-29T11:17:12.123Z,1005.68
2022-11-29T11:18:12.124Z,1005.78
2022-11-29T11:19:12.098Z,1005.71
2022-11-29T11:20:12.098Z,1005.71
2022-11-29T11:21:12.082Z,1005.7
2022-11-29T11:22:12.162Z,1005.74
2022-11-29T11:23:12.061Z,1005.77
2022-11-29T11:24:12.047Z,1005.68
2022-11-29T11:25:12.042Z,1005.71
2022-11-29T11:26:12.035Z,1005.73
2022-11-29T11:27:12.014Z,1005.66
2022-11-29T11:28:12.007Z,1005.73
2022-11-29T11:29:11.998Z,1005.69
2022-11-29T11:30:11.987Z,1005.69
2022-11-29T11:31:12.003Z,1005.69
2022-11-29T11:32:11.967Z,1005.68
2022-11-29T11:33:11.958Z,1005.75
2022-11-29T11:34:11.953Z,1005.69
2022-11-29T11:35:11.939Z,1005.72
2022-11-29T11:36:11.933Z,1005.72
2022-11-29T11:37:11.912Z,1005.71
2022-11-29T11:38:11.899Z,1005.7
2022-11-29T11:39:11.916Z,1005.7
2022-11-29T11:40:11.885Z,1005.71
2022-11-29T11:41:11.871Z,1005.73
2022-11-29T11:42:11.864Z,1005.71
2022-11-29T11:43:11.848Z,1005.73
2022-11-29T11:44:11.837Z,1005.72
2022-11-29T11:45:11.832Z,1005.74
2022-11-29T11:46:11.825Z,1005.71
2022-11-29T11:47:11.816Z,1005.74
2022-11-29T11:48:11.798Z,1005.7
2022-11-29T11:49:11.921Z,1005.72
2022-11-29T11:50:11.782Z,1005.76
2022-11-29T11:51:11.765Z,1005.72
2022-11-29T11:52:11.761Z,1005.75
2022-11-29T11:53:11.746Z,1005.83
2022-11-29T11:54:11.732Z,1005.83
2022-11-29T11:55:11.726Z,1005.79
2022-11-29T11:56:11.713Z,1005.81
2022-11-29T11:57:11.708Z,1005.82
2022-11-29T11:58:11.702Z,1005.82
2022-11-29T11:59:11.703Z,1005.91
2022-11-29T12:00:11.671Z,1005.81
2022-11-29T12:01:11.679Z,1005.85
2022-11-29T12:02:11.656Z,1005.87
2022-11-29T12:03:11.638Z,1005.85
2022-11-29T12:04:11.631Z,1005.84
2022-11-29T12:05:11.651Z,1005.86
2022-11-29T12:06:11.667Z,1005.85
2022-11-29T12:07:11.627Z,1005.78
2022-11-29T12:08:11.586Z,1005.85